Aviation Digital Data Service (ADDS)

Output produced by METARs form (0054 UTC 20 April 2019)
found at http://www.aviationweather.gov/metar/data/
 
METAR text: PGSN 192354Z 10007KT 6SM -RA SCT020 BKN030 26/24 A2993 RMK AO2 WSHFT 2324 RAB42 SLP155 P0003 60003 T02560239 10306 20256 51015
Conditions at: PGSN (SAIPAN/KOBLER , FM) observed 2354 UTC 19 April 2019
Temperature: 25.6°C (78°F)
Dewpoint: 23.9°C (75°F) [RH = 90%]
Pressure (altimeter): 29.93 inches Hg (1013.6 mb)
[Sea-level pressure: 1015.5 mb]
Winds: from the E (100 degrees) at 8 MPH (7 knots; 3.6 m/s)
Visibility: 6 miles (10 km)
Ceiling: 3000 feet AGL
Clouds: scattered clouds at 2000 feet AGL
broken clouds at 3000 feet AGL
Weather: -RA  (light rain)

METAR text: PGSN 192340Z 10016KT 9SM SCT017 BKN023 27/22 A2993 RMK AO2 WSHFT 2324 T02720222
Conditions at: PGSN (SAIPAN/KOBLER , FM) observed 2340 UTC 19 April 2019
Temperature: 27.2°C (81°F)
Dewpoint: 22.2°C (72°F) [RH = 74%]
Pressure (altimeter): 29.93 inches Hg (1013.6 mb)
Winds: from the E (100 degrees) at 18 MPH (16 knots; 8.2 m/s)
Visibility: 9 miles (14 km)
Ceiling: 2300 feet AGL
Clouds: scattered clouds at 1700 feet AGL
broken clouds at 2300 feet AGL
Weather: no significant weather observed at this time

METAR text: PGSN 192254Z 05008KT 10SM SCT020 30/23 A2992 RMK AO2 SLP153 T03000228
Conditions at: PGSN (SAIPAN/KOBLER , FM) observed 2254 UTC 19 April 2019
Temperature: 30.0°C (86°F)
Dewpoint: 22.8°C (73°F) [RH = 65%]
Pressure (altimeter): 29.92 inches Hg (1013.3 mb)
[Sea-level pressure: 1015.3 mb]
Winds: from the NE (50 degrees) at 9 MPH (8 knots; 4.1 m/s)
Visibility: 10 or more miles (16+ km)
Ceiling: at least 12,000 feet AGL
Clouds: scattered clouds at 2000 feet AGL
Weather: no significant weather observed at this time

METAR text: PGSN 192154Z 08010KT 10SM SCT022 28/23 A2991 RMK AO2 SLP148 T02830228
Conditions at: PGSN (SAIPAN/KOBLER , FM) observed 2154 UTC 19 April 2019
Temperature: 28.3°C (83°F)
Dewpoint: 22.8°C (73°F) [RH = 72%]
Pressure (altimeter): 29.91 inches Hg (1013.0 mb)
[Sea-level pressure: 1014.8 mb]
Winds: from the E (80 degrees) at 12 MPH (10 knots; 5.1 m/s)
Visibility: 10 or more miles (16+ km)
Ceiling: at least 12,000 feet AGL
Clouds: scattered clouds at 2200 feet AGL
Weather: no significant weather observed at this time

METAR text: PGSN 192054Z 06007KT 10SM CLR 27/22 A2988 RMK AO2 SLP140 T02720222 53010
Conditions at: PGSN (SAIPAN/KOBLER , FM) observed 2054 UTC 19 April 2019
Temperature: 27.2°C (81°F)
Dewpoint: 22.2°C (72°F) [RH = 74%]
Pressure (altimeter): 29.88 inches Hg (1011.9 mb)
[Sea-level pressure: 1014.0 mb]
Winds: from the ENE (60 degrees) at 8 MPH (7 knots; 3.6 m/s)
Visibility: 10 or more miles (16+ km)
Ceiling: at least 12,000 feet AGL
Clouds: sky clear below 12,000 feet AGL
Weather: no significant weather observed at this time

METAR text: PGSN 191954Z 05007KT 10SM SCT019 SCT026 26/23 A2987 RMK AO2 SLP136 T02610228
Conditions at: PGSN (SAIPAN/KOBLER , FM) observed 1954 UTC 19 April 2019
Temperature: 26.1°C (79°F)
Dewpoint: 22.8°C (73°F) [RH = 82%]
Pressure (altimeter): 29.87 inches Hg (1011.6 mb)
[Sea-level pressure: 1013.6 mb]
Winds: from the NE (50 degrees) at 8 MPH (7 knots; 3.6 m/s)
Visibility: 10 or more miles (16+ km)
Ceiling: at least 12,000 feet AGL
Clouds: scattered clouds at 1900 feet AGL
scattered clouds at 2600 feet AGL
Weather: no significant weather observed at this time

METAR text: PGSN 191854Z 07009KT 10SM SCT022 SCT026 26/22 A2986 RMK AO2 SLP133 T02610222
Conditions at: PGSN (SAIPAN/KOBLER , FM) observed 1854 UTC 19 April 2019
Temperature: 26.1°C (79°F)
Dewpoint: 22.2°C (72°F) [RH = 79%]
Pressure (altimeter): 29.86 inches Hg (1011.3 mb)
[Sea-level pressure: 1013.3 mb]
Winds: from the ENE (70 degrees) at 10 MPH (9 knots; 4.6 m/s)
Visibility: 10 or more miles (16+ km)
Ceiling: at least 12,000 feet AGL
Clouds: scattered clouds at 2200 feet AGL
scattered clouds at 2600 feet AGL
Weather: no significant weather observed at this time

METAR text: PGSN 191754Z 07009KT 10SM FEW019 26/22 A2985 RMK AO2 SLP130 T02560222 10267 20256 56006
Conditions at: PGSN (SAIPAN/KOBLER , FM) observed 1754 UTC 19 April 2019
Temperature: 25.6°C (78°F)
Dewpoint: 22.2°C (72°F) [RH = 82%]
Pressure (altimeter): 29.85 inches Hg (1010.9 mb)
[Sea-level pressure: 1013.0 mb]
Winds: from the ENE (70 degrees) at 10 MPH (9 knots; 4.6 m/s)
Visibility: 10 or more miles (16+ km)
Ceiling: at least 12,000 feet AGL
Clouds: few clouds at 1900 feet AGL
Weather: no significant weather observed at this time

METAR text: PGSN 191654Z 08009KT 10SM FEW021 27/22 A2985 RMK AO2 SLP130 T02670222
Conditions at: PGSN (SAIPAN/KOBLER , FM) observed 1654 UTC 19 April 2019
Temperature: 26.7°C (80°F)
Dewpoint: 22.2°C (72°F) [RH = 76%]
Pressure (altimeter): 29.85 inches Hg (1010.9 mb)
[Sea-level pressure: 1013.0 mb]
Winds: from the E (80 degrees) at 10 MPH (9 knots; 4.6 m/s)
Visibility: 10 or more miles (16+ km)
Ceiling: at least 12,000 feet AGL
Clouds: few clouds at 2100 feet AGL
Weather: no significant weather observed at this time

METAR text: PGSN 191554Z 08009KT 10SM CLR 26/22 A2986 RMK AO2 SLP132 T02610222
Conditions at: PGSN (SAIPAN/KOBLER , FM) observed 1554 UTC 19 April 2019
Temperature: 26.1°C (79°F)
Dewpoint: 22.2°C (72°F) [RH = 79%]
Pressure (altimeter): 29.86 inches Hg (1011.3 mb)
[Sea-level pressure: 1013.2 mb]
Winds: from the E (80 degrees) at 10 MPH (9 knots; 4.6 m/s)
Visibility: 10 or more miles (16+ km)
Ceiling: at least 12,000 feet AGL
Clouds: sky clear below 12,000 feet AGL
Weather: no significant weather observed at this time

METAR text: PGSN 191454Z 07011KT 10SM BKN070 27/22 A2987 RMK AO2 SLP136 T02670222 58009
Conditions at: PGSN (SAIPAN/KOBLER , FM) observed 1454 UTC 19 April 2019
Temperature: 26.7°C (80°F)
Dewpoint: 22.2°C (72°F) [RH = 76%]
Pressure (altimeter): 29.87 inches Hg (1011.6 mb)
[Sea-level pressure: 1013.6 mb]
Winds: from the ENE (70 degrees) at 13 MPH (11 knots; 5.7 m/s)
Visibility: 10 or more miles (16+ km)
Ceiling: 7000 feet AGL
Clouds: broken clouds at 7000 feet AGL
Weather: no significant weather observed at this time

METAR text: PGSN 191354Z 06011KT 10SM OVC060 27/22 A2988 RMK AO2 SLP141 T02670217 403220250
Conditions at: PGSN (SAIPAN/KOBLER , FM) observed 1354 UTC 19 April 2019
Temperature: 26.7°C (80°F)
Dewpoint: 21.7°C (71°F) [RH = 74%]
Pressure (altimeter): 29.88 inches Hg (1011.9 mb)
[Sea-level pressure: 1014.1 mb]
Winds: from the ENE (60 degrees) at 13 MPH (11 knots; 5.7 m/s)
Visibility: 10 or more miles (16+ km)
Ceiling: 6000 feet AGL
Clouds: overcast cloud deck at 6000 feet AGL
Weather: no significant weather observed at this time

METAR text: PGSN 191254Z 06009KT 10SM FEW065 27/23 A2990 RMK AO2 SLP145 T02670228
Conditions at: PGSN (SAIPAN/KOBLER , FM) observed 1254 UTC 19 April 2019
Temperature: 26.7°C (80°F)
Dewpoint: 22.8°C (73°F) [RH = 79%]
Pressure (altimeter): 29.90 inches Hg (1012.6 mb)
[Sea-level pressure: 1014.5 mb]
Winds: from the ENE (60 degrees) at 10 MPH (9 knots; 4.6 m/s)
Visibility: 10 or more miles (16+ km)
Ceiling: at least 12,000 feet AGL
Clouds: few clouds at 6500 feet AGL
Weather: no significant weather observed at this time

METAR text: PGSN 191154Z 07011KT 10SM FEW090 26/23 A2990 RMK AO2 SLP145 60001 70003 T02610233 10306 20250 51010
Conditions at: PGSN (SAIPAN/KOBLER , FM) observed 1154 UTC 19 April 2019
Temperature: 26.1°C (79°F)
Dewpoint: 23.3°C (74°F) [RH = 85%]
Pressure (altimeter): 29.90 inches Hg (1012.6 mb)
[Sea-level pressure: 1014.5 mb]
Winds: from the ENE (70 degrees) at 13 MPH (11 knots; 5.7 m/s)
Visibility: 10 or more miles (16+ km)
Ceiling: at least 12,000 feet AGL
Clouds: few clouds at 9000 feet AGL
Weather: no significant weather observed at this time

METAR text: PGSN 191054Z 07010KT 10SM FEW065 26/23 A2989 RMK AO2 RAB20E26 SLP143 P0000 T02610233
Conditions at: PGSN (SAIPAN/KOBLER , FM) observed 1054 UTC 19 April 2019
Temperature: 26.1°C (79°F)
Dewpoint: 23.3°C (74°F) [RH = 85%]
Pressure (altimeter): 29.89 inches Hg (1012.3 mb)
[Sea-level pressure: 1014.3 mb]
Winds: from the ENE (70 degrees) at 12 MPH (10 knots; 5.1 m/s)
Visibility: 10 or more miles (16+ km)
Ceiling: at least 12,000 feet AGL
Clouds: few clouds at 6500 feet AGL
Weather: no significant weather observed at this time

METAR text: PGSN 190954Z 08008KT 10SM OVC070 26/23 A2988 RMK AO2 WSHFT 0907 RAB23E35 SLP139 P0000 T02610228
Conditions at: PGSN (SAIPAN/KOBLER , FM) observed 0954 UTC 19 April 2019
Temperature: 26.1°C (79°F)
Dewpoint: 22.8°C (73°F) [RH = 82%]
Pressure (altimeter): 29.88 inches Hg (1011.9 mb)
[Sea-level pressure: 1013.9 mb]
Winds: from the E (80 degrees) at 9 MPH (8 knots; 4.1 m/s)
Visibility: 10 or more miles (16+ km)
Ceiling: 7000 feet AGL
Clouds: overcast cloud deck at 7000 feet AGL
Weather: no significant weather observed at this time

METAR text: PGSN 190921Z 10012KT 10SM FEW015 BKN040 OVC055 26/23 A2987 RMK AO2 WSHFT 0907 T02560233
Conditions at: PGSN (SAIPAN/KOBLER , FM) observed 0921 UTC 19 April 2019
Temperature: 25.6°C (78°F)
Dewpoint: 23.3°C (74°F) [RH = 87%]
Pressure (altimeter): 29.87 inches Hg (1011.6 mb)
Winds: from the E (100 degrees) at 14 MPH (12 knots; 6.2 m/s)
Visibility: 10 or more miles (16+ km)
Ceiling: 4000 feet AGL
Clouds: few clouds at 1500 feet AGL
broken clouds at 4000 feet AGL
overcast cloud deck at 5500 feet AGL
Weather: no significant weather observed at this time

METAR text: PGSN 190854Z 06008KT 10SM FEW025 BKN050 OVC080 27/23 A2987 RMK AO2 SLP135 60001 T02670228 53010
Conditions at: PGSN (SAIPAN/KOBLER , FM) observed 0854 UTC 19 April 2019
Temperature: 26.7°C (80°F)
Dewpoint: 22.8°C (73°F) [RH = 79%]
Pressure (altimeter): 29.87 inches Hg (1011.6 mb)
[Sea-level pressure: 1013.5 mb]
Winds: from the ENE (60 degrees) at 9 MPH (8 knots; 4.1 m/s)
Visibility: 10 or more miles (16+ km)
Ceiling: 5000 feet AGL
Clouds: few clouds at 2500 feet AGL
broken clouds at 5000 feet AGL
overcast cloud deck at 8000 feet AGL
Weather: no significant weather observed at this time

METAR text: PGSN 190754Z 06009KT 10SM SCT060 26/21 A2985 RMK AO2 RAE51 SLP130 P0001 T02560206
Conditions at: PGSN (SAIPAN/KOBLER , FM) observed 0754 UTC 19 April 2019
Temperature: 25.6°C (78°F)
Dewpoint: 20.6°C (69°F) [RH = 74%]
Pressure (altimeter): 29.85 inches Hg (1010.9 mb)
[Sea-level pressure: 1013.0 mb]
Winds: from the ENE (60 degrees) at 10 MPH (9 knots; 4.6 m/s)
Visibility: 10 or more miles (16+ km)
Ceiling: at least 12,000 feet AGL
Clouds: scattered clouds at 6000 feet AGL
Weather: no significant weather observed at this time

METAR text: PGSN 190654Z 08014KT 10SM -RA FEW020 SCT049CB BKN070 28/23 A2984 RMK AO2 RAB35 SLP125 CB N-E MOV W P0000 T02830233
Conditions at: PGSN (SAIPAN/KOBLER , FM) observed 0654 UTC 19 April 2019
Temperature: 28.3°C (83°F)
Dewpoint: 23.3°C (74°F) [RH = 74%]
Pressure (altimeter): 29.84 inches Hg (1010.6 mb)
[Sea-level pressure: 1012.5 mb]
Winds: from the E (80 degrees) at 16 MPH (14 knots; 7.2 m/s)
Visibility: 10 or more miles (16+ km)
Ceiling: 7000 feet AGL
Clouds: few clouds at 2000 feet AGL
scattered clouds at 4900 feet AGL
broken clouds at 7000 feet AGL
Weather: -RA  (light rain)

METAR text: PGSN 190554Z 09011KT 10SM SCT022 30/22 A2984 RMK AO2 SLP125 T03000222 10322 20294 56016
Conditions at: PGSN (SAIPAN/KOBLER , FM) observed 0554 UTC 19 April 2019
Temperature: 30.0°C (86°F)
Dewpoint: 22.2°C (72°F) [RH = 63%]
Pressure (altimeter): 29.84 inches Hg (1010.6 mb)
[Sea-level pressure: 1012.5 mb]
Winds: from the E (90 degrees) at 13 MPH (11 knots; 5.7 m/s)
Visibility: 10 or more miles (16+ km)
Ceiling: at least 12,000 feet AGL
Clouds: scattered clouds at 2200 feet AGL
Weather: no significant weather observed at this time

METAR text: PGSN 190454Z 07012G15KT 10SM SCT023 31/22 A2985 RMK AO2 SLP128 T03060222
Conditions at: PGSN (SAIPAN/KOBLER , FM) observed 0454 UTC 19 April 2019
Temperature: 30.6°C (87°F)
Dewpoint: 22.2°C (72°F) [RH = 61%]
Pressure (altimeter): 29.85 inches Hg (1010.9 mb)
[Sea-level pressure: 1012.8 mb]
Winds: from the ENE (70 degrees) at 14 MPH (12 knots; 6.2 m/s)
gusting to 17 MPH (15 knots; 7.7 m/s)
Visibility: 10 or more miles (16+ km)
Ceiling: at least 12,000 feet AGL
Clouds: scattered clouds at 2300 feet AGL
Weather: no significant weather observed at this time

METAR text: PGSN 190354Z 08010G16KT 10SM SCT023 31/22 A2987 RMK AO2 SLP134 T03110217
Conditions at: PGSN (SAIPAN/KOBLER , FM) observed 0354 UTC 19 April 2019
Temperature: 31.1°C (88°F)
Dewpoint: 21.7°C (71°F) [RH = 57%]
Pressure (altimeter): 29.87 inches Hg (1011.6 mb)
[Sea-level pressure: 1013.4 mb]
Winds: from the E (80 degrees) at 12 MPH (10 knots; 5.1 m/s)
gusting to 18 MPH (16 knots; 8.2 m/s)
Visibility: 10 or more miles (16+ km)
Ceiling: at least 12,000 feet AGL
Clouds: scattered clouds at 2300 feet AGL
Weather: no significant weather observed at this time

METAR text: PGSN 190254Z 09009G15KT 10SM CLR 31/19 A2989 RMK AO2 SLP141 T03110194 58020
Conditions at: PGSN (SAIPAN/KOBLER , FM) observed 0254 UTC 19 April 2019
Temperature: 31.1°C (88°F)
Dewpoint: 19.4°C (67°F) [RH = 50%]
Pressure (altimeter): 29.89 inches Hg (1012.3 mb)
[Sea-level pressure: 1014.1 mb]
Winds: from the E (90 degrees) at 10 MPH (9 knots; 4.6 m/s)
gusting to 17 MPH (15 knots; 7.7 m/s)
Visibility: 10 or more miles (16+ km)
Ceiling: at least 12,000 feet AGL
Clouds: sky clear below 12,000 feet AGL
Weather: no significant weather observed at this time

METAR text: PGSN 190154Z VRB06KT 10SM SCT027 31/21 A2991 RMK AO2 SLP148 T03110206
Conditions at: PGSN (SAIPAN/KOBLER , FM) observed 0154 UTC 19 April 2019
Temperature: 31.1°C (88°F)
Dewpoint: 20.6°C (69°F) [RH = 54%]
Pressure (altimeter): 29.91 inches Hg (1013.0 mb)
[Sea-level pressure: 1014.8 mb]
Winds: variable direction winds at 7 MPH (6 knots; 3.1 m/s)
Visibility: 10 or more miles (16+ km)
Ceiling: at least 12,000 feet AGL
Clouds: scattered clouds at 2700 feet AGL
Weather: no significant weather observed at this time

METAR text: PGSN 190054Z 09007KT 060V130 10SM SCT027 31/22 A2994 RMK AO2 SLP159 T03110217
Conditions at: PGSN (SAIPAN/KOBLER , FM) observed 0054 UTC 19 April 2019
Temperature: 31.1°C (88°F)
Dewpoint: 21.7°C (71°F) [RH = 57%]
Pressure (altimeter): 29.94 inches Hg (1014.0 mb)
[Sea-level pressure: 1015.9 mb]
Winds: from the E (90 degrees) at 8 MPH (7 knots; 3.6 m/s)
Visibility: 10 or more miles (16+ km)
Ceiling: at least 12,000 feet AGL
Clouds: scattered clouds at 2700 feet AGL
Weather: no significant weather observed at this time

METAR text: PGSN 182354Z 06007KT 10SM SCT025 31/22 A2995 RMK AO2 SLP162 60002 T03060217 10306 20250 50006
Conditions at: PGSN (SAIPAN/KOBLER , FM) observed 2354 UTC 18 April 2019
Temperature: 30.6°C (87°F)
Dewpoint: 21.7°C (71°F) [RH = 59%]
Pressure (altimeter): 29.95 inches Hg (1014.3 mb)
[Sea-level pressure: 1016.2 mb]
Winds: from the ENE (60 degrees) at 8 MPH (7 knots; 3.6 m/s)
Visibility: 10 or more miles (16+ km)
Ceiling: at least 12,000 feet AGL
Clouds: scattered clouds at 2500 feet AGL
Weather: no significant weather observed at this time

METAR text: PGSN 182254Z 07008KT 040V100 10SM SCT025 SCT031 29/22 A2995 RMK AO2 SLP163 T02940222
Conditions at: PGSN (SAIPAN/KOBLER , FM) observed 2254 UTC 18 April 2019
Temperature: 29.4°C (85°F)
Dewpoint: 22.2°C (72°F) [RH = 65%]
Pressure (altimeter): 29.95 inches Hg (1014.3 mb)
[Sea-level pressure: 1016.3 mb]
Winds: from the ENE (70 degrees) at 9 MPH (8 knots; 4.1 m/s)
Visibility: 10 or more miles (16+ km)
Ceiling: at least 12,000 feet AGL
Clouds: scattered clouds at 2500 feet AGL
scattered clouds at 3100 feet AGL
Weather: no significant weather observed at this time

METAR text: PGSN 182154Z 12005KT 10SM FEW022 28/22 A2994 RMK AO2 SLP161 T02780222
Conditions at: PGSN (SAIPAN/KOBLER , FM) observed 2154 UTC 18 April 2019
Temperature: 27.8°C (82°F)
Dewpoint: 22.2°C (72°F) [RH = 72%]
Pressure (altimeter): 29.94 inches Hg (1014.0 mb)
[Sea-level pressure: 1016.1 mb]
Winds: from the ESE (120 degrees) at 6 MPH (5 knots; 2.6 m/s)
Visibility: 10 or more miles (16+ km)
Ceiling: at least 12,000 feet AGL
Clouds: few clouds at 2200 feet AGL
Weather: no significant weather observed at this time

METAR text: PGSN 182054Z 09004KT 10SM FEW019 SCT026 27/23 A2993 RMK AO2 SLP156 60002 T02670228 53009
Conditions at: PGSN (SAIPAN/KOBLER , FM) observed 2054 UTC 18 April 2019
Temperature: 26.7°C (80°F)
Dewpoint: 22.8°C (73°F) [RH = 79%]
Pressure (altimeter): 29.93 inches Hg (1013.6 mb)
[Sea-level pressure: 1015.6 mb]
Winds: from the E (90 degrees) at 5 MPH (4 knots; 2.1 m/s)
Visibility: 10 or more miles (16+ km)
Ceiling: at least 12,000 feet AGL
Clouds: few clouds at 1900 feet AGL
scattered clouds at 2600 feet AGL
Weather: no significant weather observed at this time

METAR text: PGSN 181954Z 00000KT 10SM SCT019 SCT025 BKN060 26/23 A2992 RMK AO2 RAB1856E15B43E54 SLP152 P0002 T02560228
Conditions at: PGSN (SAIPAN/KOBLER , FM) observed 1954 UTC 18 April 2019
Temperature: 25.6°C (78°F)
Dewpoint: 22.8°C (73°F) [RH = 85%]
Pressure (altimeter): 29.92 inches Hg (1013.3 mb)
[Sea-level pressure: 1015.2 mb]
Winds: calm
Visibility: 10 or more miles (16+ km)
Ceiling: 6000 feet AGL
Clouds: scattered clouds at 1900 feet AGL
scattered clouds at 2500 feet AGL
broken clouds at 6000 feet AGL
Weather: no significant weather observed at this time

METAR text: PGSN 181854Z 10006KT 10SM FEW020 SCT075 26/22 A2991 RMK AO2 SLP148 T02560222
Conditions at: PGSN (SAIPAN/KOBLER , FM) observed 1854 UTC 18 April 2019
Temperature: 25.6°C (78°F)
Dewpoint: 22.2°C (72°F) [RH = 82%]
Pressure (altimeter): 29.91 inches Hg (1013.0 mb)
[Sea-level pressure: 1014.8 mb]
Winds: from the E (100 degrees) at 7 MPH (6 knots; 3.1 m/s)
Visibility: 10 or more miles (16+ km)
Ceiling: at least 12,000 feet AGL
Clouds: few clouds at 2000 feet AGL
scattered clouds at 7500 feet AGL
Weather: no significant weather observed at this time

METAR text: PGSN 181754Z 10005KT 10SM CLR 26/22 A2990 RMK AO2 SLP146 T02560222 10267 20250 56010
Conditions at: PGSN (SAIPAN/KOBLER , FM) observed 1754 UTC 18 April 2019
Temperature: 25.6°C (78°F)
Dewpoint: 22.2°C (72°F) [RH = 82%]
Pressure (altimeter): 29.90 inches Hg (1012.6 mb)
[Sea-level pressure: 1014.6 mb]
Winds: from the E (100 degrees) at 6 MPH (5 knots; 2.6 m/s)
Visibility: 10 or more miles (16+ km)
Ceiling: at least 12,000 feet AGL
Clouds: sky clear below 12,000 feet AGL
Weather: no significant weather observed at this time

METAR text: PGSN 181654Z 10005KT 10SM FEW021 26/22 A2990 RMK AO2 SLP147 T02560222
Conditions at: PGSN (SAIPAN/KOBLER , FM) observed 1654 UTC 18 April 2019
Temperature: 25.6°C (78°F)
Dewpoint: 22.2°C (72°F) [RH = 82%]
Pressure (altimeter): 29.90 inches Hg (1012.6 mb)
[Sea-level pressure: 1014.7 mb]
Winds: from the E (100 degrees) at 6 MPH (5 knots; 2.6 m/s)
Visibility: 10 or more miles (16+ km)
Ceiling: at least 12,000 feet AGL
Clouds: few clouds at 2100 feet AGL
Weather: no significant weather observed at this time

METAR text: PGSN 181554Z 08005KT 10SM CLR 26/22 A2992 RMK AO2 SLP153 T02610222
Conditions at: PGSN (SAIPAN/KOBLER , FM) observed 1554 UTC 18 April 2019
Temperature: 26.1°C (79°F)
Dewpoint: 22.2°C (72°F) [RH = 79%]
Pressure (altimeter): 29.92 inches Hg (1013.3 mb)
[Sea-level pressure: 1015.3 mb]
Winds: from the E (80 degrees) at 6 MPH (5 knots; 2.6 m/s)
Visibility: 10 or more miles (16+ km)
Ceiling: at least 12,000 feet AGL
Clouds: sky clear below 12,000 feet AGL
Weather: no significant weather observed at this time

METAR text: PGSN 181454Z 09006KT 10SM CLR 26/22 A2993 RMK AO2 SLP156 T02610222 58007
Conditions at: PGSN (SAIPAN/KOBLER , FM) observed 1454 UTC 18 April 2019
Temperature: 26.1°C (79°F)
Dewpoint: 22.2°C (72°F) [RH = 79%]
Pressure (altimeter): 29.93 inches Hg (1013.6 mb)
[Sea-level pressure: 1015.6 mb]
Winds: from the E (90 degrees) at 7 MPH (6 knots; 3.1 m/s)
Visibility: 10 or more miles (16+ km)
Ceiling: at least 12,000 feet AGL
Clouds: sky clear below 12,000 feet AGL
Weather: no significant weather observed at this time

METAR text: PGSN 181354Z 08006KT 10SM SCT029 27/23 A2995 RMK AO2 SLP162 T02670228 403170250
Conditions at: PGSN (SAIPAN/KOBLER , FM) observed 1354 UTC 18 April 2019
Temperature: 26.7°C (80°F)
Dewpoint: 22.8°C (73°F) [RH = 79%]
Pressure (altimeter): 29.95 inches Hg (1014.3 mb)
[Sea-level pressure: 1016.2 mb]
Winds: from the E (80 degrees) at 7 MPH (6 knots; 3.1 m/s)
Visibility: 10 or more miles (16+ km)
Ceiling: at least 12,000 feet AGL
Clouds: scattered clouds at 2900 feet AGL
Weather: no significant weather observed at this time

Forecast for: PGSN (SAIPAN/KOBLER , FM)
Text: PGSN 192349Z 2000/2024 05013KT P6SM VCSH FEW018 SCT040 SCT080
Forecast period: 0000 to 0900 UTC 20 April 2019
Forecast type: FROM: standard forecast or significant change
Winds: from the NE (50 degrees) at 15 MPH (13 knots; 6.7 m/s)
Visibility: 6 or more miles 10+ km)
Ceiling: at least 12,000 feet AGL
Clouds: few clouds at 1800 feet AGL
scattered clouds at 4000 feet AGL
scattered clouds at 8000 feet AGL
Weather: VCSH  (showers in vicinity)
Text: FM200900 06011KT P6SM VCSH SCT018 SCT040 BKN080
Forecast period: 0900 UTC 20 April 2019 to 0000 UTC 21 April 2019
Forecast type: FROM: standard forecast or significant change
Winds: from the ENE (60 degrees) at 13 MPH (11 knots; 5.7 m/s)
Visibility: 6 or more miles 10+ km)
Ceiling: 8000 feet AGL
Clouds: scattered clouds at 1800 feet AGL
scattered clouds at 4000 feet AGL
broken clouds at 8000 feet AGL
Weather: VCSH  (showers in vicinity)